Kafr el-Dauwar, Egypt
Current Conditions -  °F | °C
As of 1:00 PM on Thursday 23 Oct 2014 (Local Time) from HEAX Reporting Station
Clear Clear  
Wind Chill: 84°   Ceiling: Unl
Heat Index: 84°   Visibility: 6mi
Dew Point: 46°   Wind: 15mph
Humidity: 27%   Direction: 270°W
Pressure: 29.94"   Gusts: NA
Location:  31.13°N, 30.12°E
Report Text: HEAX 231100Z 27013KT CAVOK 29/08 Q1014 NOSIG
Loading
Personal Weather Stations






























Interactive Weather Map New forecast layout! Learn more

10-Day Weather Forecast

Advertisements
Track Severe Weather on mobile